createdAt,value
2023-01-06T00:01:08.978Z,101902.94
2023-01-06T00:03:35.877Z,101912.88
2023-01-06T00:06:04.519Z,101904.28
2023-01-06T00:08:31.083Z,101894.63
2023-01-06T00:10:57.669Z,101892.00
2023-01-06T00:13:24.206Z,101890.41
2023-01-06T00:15:50.828Z,101888.84
2023-01-06T00:18:17.638Z,101887.28
2023-01-06T00:20:44.208Z,101880.50
2023-01-06T00:23:10.993Z,101875.28
2023-01-06T00:25:37.516Z,101882.56
2023-01-06T00:28:04.494Z,101882.56
2023-01-06T00:30:30.915Z,101883.59
2023-01-06T00:32:57.702Z,101883.34
2023-01-06T00:35:24.475Z,101879.19
2023-01-06T00:37:51.041Z,101879.97
2023-01-06T00:40:17.627Z,101881.00
2023-01-06T00:42:44.044Z,101876.81
2023-01-06T00:45:10.832Z,101889.88
2023-01-06T00:47:37.422Z,101887.78
2023-01-06T00:50:04.299Z,101891.44
2023-01-06T00:52:30.928Z,101886.47
2023-01-06T00:54:57.444Z,101885.44
2023-01-06T00:57:24.286Z,101890.66
2023-01-06T00:59:50.911Z,101889.09
2023-01-06T01:02:17.698Z,101883.06
2023-01-06T01:04:44.662Z,101879.44
2023-01-06T01:07:11.194Z,101882.03
2023-01-06T01:09:37.664Z,101885.44
2023-01-06T01:12:10.521Z,101878.38
2023-01-06T01:14:41.663Z,101876.56
2023-01-06T01:17:10.032Z,101877.59
2023-01-06T01:19:37.934Z,101879.97
2023-01-06T01:22:05.171Z,101883.06
2023-01-06T01:24:31.917Z,101882.03
2023-01-06T01:26:58.609Z,101879.44
2023-01-06T01:29:26.604Z,101879.97
2023-01-06T01:31:55.915Z,101869.78
2023-01-06T01:34:23.597Z,101868.75
2023-01-06T01:36:52.290Z,101865.63
2023-01-06T01:39:21.871Z,101861.69
2023-01-06T01:41:48.960Z,101855.72
2023-01-06T01:45:13.182Z,101848.13
2023-01-06T01:47:52.438Z,101855.94
2023-01-06T01:50:31.283Z,101851.75
2023-01-06T01:53:13.656Z,101854.91
2023-01-06T01:55:40.596Z,101847.88
2023-01-06T01:58:16.127Z,101846.28
2023-01-06T02:00:44.148Z,101848.13
2023-01-06T02:03:13.661Z,101848.13
2023-01-06T02:05:44.252Z,101839.25
2023-01-06T02:08:46.182Z,101849.44
2023-01-06T02:11:12.843Z,101844.47
2023-01-06T02:13:43.125Z,101838.22
2023-01-06T02:16:23.684Z,101825.16
2023-01-06T02:19:10.389Z,101823.59
2023-01-06T02:22:02.174Z,101832.22
2023-01-06T02:24:48.781Z,101812.38
2023-01-06T02:27:46.157Z,101810.00
2023-01-06T02:30:40.225Z,101812.09
2023-01-06T02:33:12.531Z,101810.28
2023-01-06T02:35:47.552Z,101800.63
2023-01-06T02:38:37.006Z,101802.19
2023-01-06T02:41:09.960Z,101794.88
2023-01-06T02:44:01.171Z,101800.09
2023-01-06T02:46:30.425Z,101782.66
2023-01-06T02:49:25.666Z,101777.69
2023-01-06T02:52:01.286Z,101760.19
2023-01-06T02:54:37.306Z,101763.03
2023-01-06T02:57:21.383Z,101767.72
2023-01-06T03:00:06.716Z,101759.13
2023-01-06T03:02:34.828Z,101760.97
2023-01-06T03:05:03.945Z,101758.34
2023-01-06T03:07:32.726Z,101744.78
2023-01-06T03:10:02.072Z,101745.81
2023-01-06T03:12:57.668Z,101745.81
2023-01-06T03:15:25.214Z,101737.97
2023-01-06T03:17:52.394Z,101730.16
2023-01-06T03:20:19.746Z,101729.38
2023-01-06T03:22:46.471Z,101729.13
2023-01-06T03:25:14.151Z,101715.56
2023-01-06T03:27:40.884Z,101701.69
2023-01-06T03:30:10.215Z,101698.31
2023-01-06T03:33:00.378Z,101703.53
2023-01-06T03:35:38.492Z,101704.59
2023-01-06T03:38:13.730Z,101700.16
2023-01-06T03:41:04.542Z,101695.97
2023-01-06T03:43:45.961Z,101704.59
2023-01-06T03:46:42.678Z,101701.97
2023-01-06T03:49:25.350Z,101701.19
2023-01-06T03:52:27.739Z,101696.75
2023-01-06T03:54:56.754Z,101686.84
2023-01-06T03:57:27.845Z,101696.22
2023-01-06T04:00:03.259Z,101681.13
2023-01-06T04:02:30.324Z,101682.66
2023-01-06T04:05:15.545Z,101667.00
2023-01-06T04:07:43.390Z,101658.16
2023-01-06T04:10:11.714Z,101661.78
2023-01-06T04:12:38.668Z,101659.19
2023-01-06T04:15:29.869Z,101658.66
2023-01-06T04:17:56.656Z,101656.56
2023-01-06T04:20:28.561Z,101652.41
2023-01-06T04:22:56.857Z,101642.75
2023-01-06T04:25:24.177Z,101642.50
2023-01-06T04:27:51.134Z,101645.66
2023-01-06T04:30:17.782Z,101638.59
2023-01-06T04:32:44.645Z,101631.03
2023-01-06T04:35:11.465Z,101628.94
2023-01-06T04:37:38.329Z,101626.06
2023-01-06T04:40:07.609Z,101626.84
2023-01-06T04:42:54.330Z,101616.41
2023-01-06T04:45:21.913Z,101614.09
2023-01-06T04:47:48.360Z,101612.25
2023-01-06T04:50:15.007Z,101609.91
2023-01-06T04:52:41.451Z,101609.66
2023-01-06T04:55:08.905Z,101602.84
2023-01-06T04:57:35.386Z,101597.63
2023-01-06T05:00:01.894Z,101606.50
2023-01-06T05:02:28.368Z,101597.38
2023-01-06T05:04:54.847Z,101584.06
2023-01-06T05:07:21.379Z,101602.56
2023-01-06T05:09:47.881Z,101594.50
2023-01-06T05:12:14.362Z,101585.63
2023-01-06T05:14:40.959Z,101580.41
2023-01-06T05:17:07.482Z,101582.00
2023-01-06T05:19:34.144Z,101585.91
2023-01-06T05:22:00.956Z,101576.22
2023-01-06T05:24:27.426Z,101586.16
2023-01-06T05:26:55.136Z,101589.31
2023-01-06T05:29:21.698Z,101591.66
2023-01-06T05:31:48.266Z,101580.41
2023-01-06T05:34:17.041Z,101588.00
2023-01-06T05:36:43.535Z,101589.56
2023-01-06T05:39:10.224Z,101588.75
2023-01-06T05:41:36.970Z,101583.53
2023-01-06T05:44:03.707Z,101584.84
2023-01-06T05:46:30.475Z,101589.81
2023-01-06T05:48:57.018Z,101592.69
2023-01-06T05:51:23.614Z,101596.34
2023-01-06T05:53:50.082Z,101593.72
2023-01-06T05:56:19.437Z,101586.16
2023-01-06T05:58:47.827Z,101578.31
2023-01-06T06:01:18.158Z,101583.53
2023-01-06T06:03:44.693Z,101583.78
2023-01-06T06:06:11.934Z,101573.63
2023-01-06T06:08:38.644Z,101583.53
2023-01-06T06:11:07.769Z,101581.97
2023-01-06T06:13:34.227Z,101595.00
2023-01-06T06:16:12.437Z,101585.63
2023-01-06T06:18:44.122Z,101589.25
2023-01-06T06:21:17.912Z,101583.28
2023-01-06T06:23:45.470Z,101589.25
2023-01-06T06:26:12.435Z,101590.84
2023-01-06T06:28:40.318Z,101595.78
2023-01-06T06:31:11.873Z,101595.53
2023-01-06T06:33:38.993Z,101598.13
2023-01-06T06:36:06.967Z,101585.88
2023-01-06T06:38:33.422Z,101582.00
2023-01-06T06:40:59.895Z,101579.38
2023-01-06T06:43:26.478Z,101586.91
2023-01-06T06:45:52.925Z,101592.13
2023-01-06T06:48:19.404Z,101599.19
2023-01-06T06:50:45.990Z,101598.66
2023-01-06T06:53:12.569Z,101599.72
2023-01-06T06:55:39.076Z,101590.84
2023-01-06T06:58:05.571Z,101598.16
2023-01-06T07:00:32.124Z,101612.22
2023-01-06T07:02:58.668Z,101600.72
2023-01-06T07:05:25.782Z,101614.53
2023-01-06T07:07:52.540Z,101613.25
2023-01-06T07:10:19.339Z,101606.72
2023-01-06T07:12:45.883Z,101612.72
2023-01-06T07:15:12.429Z,101618.47
2023-01-06T07:17:39.709Z,101624.19
2023-01-06T07:20:06.633Z,101629.41
2023-01-06T07:22:33.209Z,101636.19
2023-01-06T07:24:59.904Z,101640.09
2023-01-06T07:27:26.405Z,101641.94
2023-01-06T07:29:53.069Z,101634.63
2023-01-06T07:32:19.630Z,101661.50
2023-01-06T07:34:46.191Z,101657.06
2023-01-06T07:37:14.989Z,101653.91
2023-01-06T07:39:41.627Z,101665.66
2023-01-06T07:42:09.796Z,101652.31
2023-01-06T07:44:36.474Z,101660.66
2023-01-06T07:47:03.459Z,101662.22
2023-01-06T07:49:30.185Z,101677.88
2023-01-06T07:51:59.091Z,101689.63
2023-01-06T07:54:25.808Z,101688.84
2023-01-06T07:56:52.545Z,101698.22
2023-01-06T07:59:19.189Z,101711.81
2023-01-06T08:01:45.855Z,101712.84
2023-01-06T08:04:14.731Z,101720.66
2023-01-06T08:06:41.588Z,101734.72
2023-01-06T08:09:08.440Z,101727.94
2023-01-06T08:11:35.280Z,101740.22
2023-01-06T08:14:01.747Z,101730.03
2023-01-06T08:16:28.403Z,101742.00
2023-01-06T08:18:54.931Z,101746.94
2023-01-06T08:21:21.437Z,101751.91
2023-01-06T08:23:48.172Z,101760.78
2023-01-06T08:26:19.995Z,101757.13
2023-01-06T08:28:47.068Z,101774.88
2023-01-06T08:31:20.316Z,101773.31
2023-01-06T08:33:48.336Z,101779.56
2023-01-06T08:36:20.399Z,101784.19
2023-01-06T08:38:48.216Z,101780.53
2023-01-06T08:41:15.492Z,101783.66
2023-01-06T08:43:45.648Z,101790.16
2023-01-06T08:46:15.505Z,101789.88
2023-01-06T08:48:42.235Z,101784.91
2023-01-06T08:51:15.942Z,101794.78
2023-01-06T08:53:43.949Z,101800.00
2023-01-06T08:56:15.535Z,101806.25
2023-01-06T08:58:42.475Z,101804.44
2023-01-06T09:01:22.631Z,101814.88
2023-01-06T09:03:49.575Z,101808.06
2023-01-06T09:06:16.620Z,101822.94
2023-01-06T09:08:43.341Z,101829.44
2023-01-06T09:11:12.865Z,101819.25
2023-01-06T09:13:39.885Z,101821.06
2023-01-06T09:16:07.551Z,101829.44
2023-01-06T09:18:58.426Z,101831.50
2023-01-06T09:21:25.688Z,101822.63
2023-01-06T09:23:56.054Z,101821.63
2023-01-06T09:26:22.622Z,101835.72
2023-01-06T09:28:49.378Z,101831.28
2023-01-06T09:31:18.018Z,101840.94
2023-01-06T09:33:44.775Z,101833.66
2023-01-06T09:36:11.380Z,101839.88
2023-01-06T09:38:37.845Z,101840.41
2023-01-06T09:41:33.723Z,101850.59
2023-01-06T09:44:24.730Z,101856.88
2023-01-06T09:46:53.060Z,101858.44
2023-01-06T09:49:24.580Z,101867.03
2023-01-06T09:51:58.539Z,101873.28
2023-01-06T09:54:31.408Z,101880.06
2023-01-06T09:57:05.929Z,101881.66
2023-01-06T09:59:57.793Z,101880.59
2023-01-06T10:02:31.509Z,101884.50
2023-01-06T10:04:58.407Z,101882.41
2023-01-06T10:07:41.793Z,101889.47
2023-01-06T10:10:43.246Z,101897.03
2023-01-06T10:13:29.134Z,101895.47
2023-01-06T10:16:16.496Z,101906.13
2023-01-06T10:19:09.310Z,101893.63
2023-01-06T10:22:01.746Z,101893.63
2023-01-06T10:24:46.218Z,101896.75
2023-01-06T10:27:56.681Z,101902.44
2023-01-06T10:30:33.964Z,101901.97
2023-01-06T10:33:04.799Z,101899.44
2023-01-06T10:35:32.927Z,101902.34
2023-01-06T10:38:04.536Z,101904.13
2023-01-06T10:40:32.229Z,101912.78
2023-01-06T10:43:06.541Z,101919.59
2023-01-06T10:45:39.151Z,101920.97
2023-01-06T10:48:10.329Z,101913.69
2023-01-06T10:50:37.240Z,101909.78
2023-01-06T10:53:04.262Z,101899.88
2023-01-06T10:55:42.498Z,101912.16
2023-01-06T10:58:39.786Z,101911.69
2023-01-06T11:01:06.493Z,101904.88
2023-01-06T11:03:34.742Z,101906.94
2023-01-06T11:06:29.368Z,101894.66
2023-01-06T11:08:57.328Z,101901.72
2023-01-06T11:11:29.157Z,101908.25
2023-01-06T11:14:01.039Z,101906.13
2023-01-06T11:16:34.073Z,101903.25
2023-01-06T11:19:04.341Z,101910.03
2023-01-06T11:21:41.762Z,101915.25
2023-01-06T11:24:30.388Z,101905.88
2023-01-06T11:26:58.563Z,101901.44
2023-01-06T11:29:33.511Z,101907.19
2023-01-06T11:32:04.746Z,101906.47
2023-01-06T11:34:32.712Z,101904.13
2023-01-06T11:37:00.260Z,101901.03
2023-01-06T11:39:36.910Z,101905.75
2023-01-06T11:42:10.465Z,101892.44
2023-01-06T11:44:40.379Z,101902.66
2023-01-06T11:47:15.305Z,101900.84
2023-01-06T11:49:54.730Z,101898.28
2023-01-06T11:52:31.122Z,101898.31
2023-01-06T11:55:19.788Z,101897.31
2023-01-06T11:58:01.271Z,101888.44
2023-01-06T12:00:33.348Z,101887.41
2023-01-06T12:03:12.588Z,101877.22
2023-01-06T12:05:54.825Z,101883.25
2023-01-06T12:08:26.571Z,101882.72
2023-01-06T12:11:23.937Z,101865.25
2023-01-06T12:14:10.636Z,101871.78
2023-01-06T12:16:55.705Z,101866.31
2023-01-06T12:19:39.161Z,101870.25
2023-01-06T12:22:08.970Z,101872.59
2023-01-06T12:24:36.803Z,101862.16
2023-01-06T12:27:04.934Z,101863.22
2023-01-06T12:29:33.517Z,101863.22
2023-01-06T12:32:20.935Z,101861.41
2023-01-06T12:34:50.221Z,101858.06
2023-01-06T12:37:33.060Z,101855.25
2023-01-06T12:40:05.799Z,101863.63
2023-01-06T12:42:43.251Z,101850.81
2023-01-06T12:45:17.195Z,101851.59
2023-01-06T12:47:55.142Z,101859.41
2023-01-06T12:50:40.194Z,101863.09
2023-01-06T12:53:23.586Z,101863.31
2023-01-06T12:55:56.756Z,101863.84
2023-01-06T12:58:38.577Z,101861.00
2023-01-06T13:01:17.222Z,101880.34
2023-01-06T13:04:08.694Z,101888.19
2023-01-06T13:07:03.476Z,101894.47
2023-01-06T13:09:39.593Z,101887.16
2023-01-06T13:12:40.140Z,101879.59
2023-01-06T13:15:20.249Z,101877.00
2023-01-06T13:18:10.519Z,101878.31
2023-01-06T13:20:43.837Z,101867.31
2023-01-06T13:23:44.960Z,101875.19
2023-01-06T13:26:17.475Z,101868.09
2023-01-06T13:28:55.971Z,101872.28
2023-01-06T13:31:43.661Z,101863.41
2023-01-06T13:34:54.063Z,101861.81
2023-01-06T13:37:50.404Z,101872.53
2023-01-06T13:40:19.837Z,101869.13
2023-01-06T13:42:51.652Z,101869.91
2023-01-06T13:45:27.521Z,101869.38
2023-01-06T13:47:54.570Z,101873.56
2023-01-06T13:50:23.289Z,101881.38
2023-01-06T13:52:51.424Z,101874.84
2023-01-06T13:55:28.692Z,101868.31
2023-01-06T13:57:55.930Z,101864.06
2023-01-06T14:00:27.038Z,101874.53
2023-01-06T14:02:53.482Z,101869.28
2023-01-06T14:05:19.902Z,101873.19
2023-01-06T14:07:51.390Z,101862.72
2023-01-06T14:10:35.005Z,101869.22
2023-01-06T14:13:04.456Z,101864.00
2023-01-06T14:15:32.960Z,101860.81
2023-01-06T14:18:03.751Z,101867.34
2023-01-06T14:20:36.617Z,101851.94
2023-01-06T14:23:22.784Z,101859.19
2023-01-06T14:25:58.549Z,101851.88
2023-01-06T14:28:29.346Z,101856.81
2023-01-06T14:31:26.969Z,101874.28
2023-01-06T14:33:57.306Z,101870.84
2023-01-06T14:36:26.860Z,101870.03
2023-01-06T14:39:01.378Z,101865.56
2023-01-06T14:42:16.523Z,101867.34
2023-01-06T14:44:47.932Z,101862.13
2023-01-06T14:47:31.733Z,101857.63
2023-01-06T14:50:04.048Z,101859.72
2023-01-06T14:52:38.229Z,101851.09
2023-01-06T14:55:11.074Z,101850.03
2023-01-06T14:57:39.442Z,101850.50
2023-01-06T15:00:27.088Z,101854.41
2023-01-06T15:02:55.582Z,101862.19
2023-01-06T15:05:42.399Z,101857.72
2023-01-06T15:08:12.401Z,101858.22
2023-01-06T15:10:42.308Z,101863.94
2023-01-06T15:13:21.355Z,101866.78
2023-01-06T15:16:06.101Z,101857.66
2023-01-06T15:18:34.850Z,101853.44
2023-01-06T15:21:02.902Z,101860.94
2023-01-06T15:23:29.904Z,101854.66
2023-01-06T15:25:56.760Z,101866.91
2023-01-06T15:28:28.915Z,101861.41
2023-01-06T15:30:57.129Z,101865.53
2023-01-06T15:33:27.856Z,101873.06
2023-01-06T15:35:55.202Z,101870.38
2023-01-06T15:38:41.803Z,101870.34
2023-01-06T15:41:28.487Z,101863.53
2023-01-06T15:43:56.306Z,101863.22
2023-01-06T15:46:23.402Z,101863.19
2023-01-06T15:48:51.335Z,101861.28
2023-01-06T15:51:21.148Z,101868.78
2023-01-06T15:53:53.851Z,101870.06
2023-01-06T15:56:26.653Z,101865.81
2023-01-06T15:58:56.077Z,101861.38
2023-01-06T16:01:24.217Z,101857.97
2023-01-06T16:04:02.049Z,101862.88
2023-01-06T16:06:33.531Z,101857.38
2023-01-06T16:09:30.596Z,101862.81
2023-01-06T16:12:03.246Z,101855.22
2023-01-06T16:14:43.703Z,101860.16
2023-01-06T16:17:17.303Z,101845.78
2023-01-06T16:20:00.623Z,101850.22
2023-01-06T16:22:35.948Z,101845.75
2023-01-06T16:25:22.633Z,101834.03
2023-01-06T16:27:51.431Z,101847.75
2023-01-06T16:30:36.259Z,101842.78
2023-01-06T16:33:04.217Z,101839.66
2023-01-06T16:35:34.818Z,101834.13
2023-01-06T16:38:03.473Z,101839.81
2023-01-06T16:40:30.500Z,101835.66
2023-01-06T16:43:02.932Z,101828.31
2023-01-06T16:45:32.382Z,101835.56
2023-01-06T16:47:58.872Z,101835.53
2023-01-06T16:50:36.784Z,101826.13
2023-01-06T16:53:13.022Z,101834.44
2023-01-06T16:55:41.769Z,101840.66
2023-01-06T16:58:23.173Z,101840.09
2023-01-06T17:00:52.185Z,101830.97
2023-01-06T17:03:28.797Z,101842.38
2023-01-06T17:05:55.774Z,101842.63
2023-01-06T17:08:29.163Z,101849.97
2023-01-06T17:10:56.927Z,101851.56
2023-01-06T17:13:35.722Z,101855.72
2023-01-06T17:16:06.851Z,101848.13
2023-01-06T17:18:33.959Z,101848.44
2023-01-06T17:21:11.624Z,101847.44
2023-01-06T17:23:43.546Z,101855.25
2023-01-06T17:26:14.717Z,101850.03
2023-01-06T17:28:42.511Z,101852.16
2023-01-06T17:31:16.700Z,101854.03
2023-01-06T17:33:45.927Z,101855.38
2023-01-06T17:36:36.832Z,101853.59
2023-01-06T17:39:15.979Z,101850.75
2023-01-06T17:41:42.858Z,101832.06
2023-01-06T17:44:15.851Z,101841.75
2023-01-06T17:46:42.517Z,101837.31
2023-01-06T17:49:32.623Z,101838.91
2023-01-06T17:52:09.581Z,101839.69
2023-01-06T17:54:54.639Z,101840.00
2023-01-06T17:57:21.215Z,101850.41
2023-01-06T17:59:53.449Z,101840.53
2023-01-06T18:02:43.099Z,101840.31
2023-01-06T18:05:21.807Z,101838.25
2023-01-06T18:07:48.339Z,101842.41
2023-01-06T18:10:17.585Z,101842.97
2023-01-06T18:12:44.302Z,101834.13
2023-01-06T18:15:31.034Z,101837.00
2023-01-06T18:18:00.528Z,101841.97
2023-01-06T18:20:27.008Z,101836.00
2023-01-06T18:22:54.026Z,101835.03
2023-01-06T18:25:24.368Z,101830.34
2023-01-06T18:27:52.419Z,101826.97
2023-01-06T18:30:23.367Z,101829.34
2023-01-06T18:32:51.765Z,101834.03
2023-01-06T18:35:28.601Z,101833.03
2023-01-06T18:38:00.069Z,101818.97
2023-01-06T18:40:28.515Z,101819.50
2023-01-06T18:42:56.320Z,101819.50
2023-01-06T18:45:28.743Z,101817.69
2023-01-06T18:48:07.674Z,101820.00
2023-01-06T18:50:37.569Z,101824.91
2023-01-06T18:53:13.331Z,101807.97
2023-01-06T18:55:55.025Z,101817.84
2023-01-06T18:58:46.166Z,101811.03
2023-01-06T19:01:31.475Z,101814.19
2023-01-06T19:04:05.582Z,101821.00
2023-01-06T19:06:40.576Z,101815.28
2023-01-06T19:09:17.875Z,101834.03
2023-01-06T19:11:45.474Z,101824.72
2023-01-06T19:14:19.483Z,101827.84
2023-01-06T19:16:56.254Z,101829.97
2023-01-06T19:19:31.744Z,101822.72
2023-01-06T19:22:16.165Z,101818.03
2023-01-06T19:25:17.617Z,101819.16
2023-01-06T19:27:49.647Z,101806.66
2023-01-06T19:30:25.446Z,101794.19
2023-01-06T19:32:52.504Z,101797.09
2023-01-06T19:35:25.151Z,101794.22
2023-01-06T19:37:58.759Z,101794.75
2023-01-06T19:40:30.544Z,101790.63
2023-01-06T19:43:10.719Z,101785.16
2023-01-06T19:45:37.308Z,101780.00
2023-01-06T19:48:18.885Z,101779.53
2023-01-06T19:50:45.333Z,101780.09
2023-01-06T19:53:28.522Z,101781.97
2023-01-06T19:55:56.489Z,101774.97
2023-01-06T19:58:34.500Z,101772.41
2023-01-06T20:01:01.058Z,101777.66
2023-01-06T20:03:35.959Z,101778.72
2023-01-06T20:06:03.449Z,101781.59
2023-01-06T20:08:29.887Z,101781.09
2023-01-06T20:10:56.298Z,101769.63
2023-01-06T20:13:23.915Z,101766.81
2023-01-06T20:15:50.337Z,101775.41
2023-01-06T20:18:16.795Z,101781.16
2023-01-06T20:20:43.245Z,101781.22
2023-01-06T20:23:09.652Z,101774.44
2023-01-06T20:25:36.323Z,101773.41
2023-01-06T20:28:02.772Z,101776.53
2023-01-06T20:30:29.175Z,101768.75
2023-01-06T20:32:56.035Z,101753.63
2023-01-06T20:35:22.778Z,101749.97
2023-01-06T20:37:49.245Z,101764.31
2023-01-06T20:40:16.100Z,101763.28
2023-01-06T20:42:42.594Z,101758.09
2023-01-06T20:45:09.624Z,101764.09
2023-01-06T20:47:36.045Z,101758.34
2023-01-06T20:50:02.627Z,101767.78
2023-01-06T20:52:29.053Z,101773.00
2023-01-06T20:54:55.520Z,101772.47
2023-01-06T20:57:23.084Z,101764.63
2023-01-06T20:59:49.543Z,101771.19
2023-01-06T21:02:16.303Z,101759.69
2023-01-06T21:04:42.814Z,101764.66
2023-01-06T21:07:09.536Z,101759.44
2023-01-06T21:09:36.342Z,101759.19
2023-01-06T21:12:02.994Z,101757.13
2023-01-06T21:14:30.346Z,101763.16
2023-01-06T21:16:56.886Z,101751.66
2023-01-06T21:19:23.417Z,101743.31
2023-01-06T21:21:51.230Z,101745.66
2023-01-06T21:24:17.707Z,101758.69
2023-01-06T21:26:44.123Z,101761.06
2023-01-06T21:29:10.599Z,101763.41
2023-01-06T21:31:37.173Z,101759.22
2023-01-06T21:34:03.613Z,101761.59
2023-01-06T21:36:30.129Z,101751.16
2023-01-06T21:38:56.586Z,101754.28
2023-01-06T21:41:41.603Z,101757.41
2023-01-06T21:44:08.032Z,101750.91
2023-01-06T21:46:34.598Z,101753.25
2023-01-06T21:49:01.013Z,101760.06
2023-01-06T21:51:27.685Z,101750.38
2023-01-06T21:53:54.186Z,101748.81
2023-01-06T21:56:20.704Z,101741.25
2023-01-06T21:58:47.282Z,101752.47
2023-01-06T22:01:13.842Z,101743.34
2023-01-06T22:03:40.317Z,101748.59
2023-01-06T22:06:07.182Z,101740.50
2023-01-06T22:08:33.743Z,101738.91
2023-01-06T22:11:00.275Z,101748.59
2023-01-06T22:13:27.663Z,101750.94
2023-01-06T22:15:54.289Z,101742.31
2023-01-06T22:18:20.986Z,101741.28
2023-01-06T22:20:47.607Z,101744.91
2023-01-06T22:23:18.313Z,101749.09
2023-01-06T22:25:45.090Z,101743.34
2023-01-06T22:28:11.695Z,101739.69
2023-01-06T22:30:38.364Z,101750.94
2023-01-06T22:33:04.995Z,101750.94
2023-01-06T22:35:31.433Z,101751.72
2023-01-06T22:37:59.207Z,101743.63
2023-01-06T22:40:25.890Z,101743.88
2023-01-06T22:42:52.411Z,101750.13
2023-01-06T22:45:19.070Z,101754.84
2023-01-06T22:47:45.550Z,101742.81
2023-01-06T22:50:12.423Z,101743.34
2023-01-06T22:52:38.863Z,101751.19
2023-01-06T22:55:06.121Z,101747.03
2023-01-06T22:57:32.675Z,101749.63
2023-01-06T23:00:00.092Z,101747.28
2023-01-06T23:02:27.151Z,101739.69
2023-01-06T23:04:54.067Z,101743.63
2023-01-06T23:07:20.867Z,101748.59
2023-01-06T23:09:47.647Z,101751.19
2023-01-06T23:12:14.435Z,101752.22
2023-01-06T23:14:40.879Z,101738.63
2023-01-06T23:17:07.260Z,101737.88
2023-01-06T23:19:33.700Z,101741.25
2023-01-06T23:22:00.142Z,101739.69
2023-01-06T23:24:26.587Z,101738.38
2023-01-06T23:26:53.061Z,101744.41
2023-01-06T23:29:20.704Z,101749.63
2023-01-06T23:31:47.265Z,101738.66
2023-01-06T23:34:17.091Z,101740.97
2023-01-06T23:36:44.425Z,101739.16
2023-01-06T23:39:13.830Z,101745.41
2023-01-06T23:41:40.485Z,101740.44
2023-01-06T23:44:06.994Z,101740.44
2023-01-06T23:46:38.946Z,101730.00
2023-01-06T23:49:06.771Z,101737.06
2023-01-06T23:51:34.036Z,101728.72
2023-01-06T23:54:02.729Z,101731.06
2023-01-06T23:56:31.151Z,101729.22
2023-01-06T23:59:02.050Z,101724.53
